Strona główna
METAR-TAF:

METAR-TAF

Lotnisko :

Port lotniczy Nea Anchialos

Wolos, Grecja

Szerokość geograficzna: 39-13N, Długość geograficzna: 022-48E, wysokość: 25 m

Aktualna obserwacja pogody

Raport powstał 56 minut temu, godzina 11:20 UTC
Wiatr 12 kt od wschodnio-południowy wschód
Temperatura 13°C
Wilgotność 67%
Ciśnienie 1016 hPa
Widzialność 10 km lub więcej
Rozproszone chmury na wysokości 3000 ft

METAR: LGBL 031120Z 11012KT 9999 SCT030 13/07 Q1016

czas: 15:16 (12:16 UTC)

Prognoza

Raport powstał 16 godziny i 16 minut temu, godzina 20:00 UTC
Prognoza ważna od 02 godzina 21 UTC do 03 godzina 06 UTC
Wiatr 10 kt od wschodnio-południowy wschód
Widzialność 10 km lub więcej
Rozproszone chmury na wysokości 2500 ft
Rozproszone chmury na wysokości 8000 ft
Stopniowe zmiany
od 03 godzina 03 UTC do 03 godzina 05 UTC
Rozproszone chmury na wysokości 2500 ft
Przerywane chmury na wysokości 8000 ft

TAF: LGBL 022000Z 0221/0306 12010KT 9999 SCT025 SCT080 BECMG 0303/0305 SCT025 BKN080

Obserwacja i prognoza pogody dla ponad 4000 lotnisk (raport METAR i TAF).

Dostępne stacje oznaczono żółtymi i czerwonymi punktami na mapie.

Najedź kursorem aby zobaczyć nazwę stacji.

Kliknij aby zobaczyć obserwacje i prognozy pogody.

Aby zmienić mapę: kliknij na zielony przycisk z czarnym krzyżykiem, aby powiększyć; na zielony przycisk z myślnikiem, aby pomniejszyć; na zielone strzałki, aby przejść do map sąsiednich.


METAR-TAF: